sensor_id;sensor_type;location;lat;lon;timestamp;P1;durP1;ratioP1;P2;durP2;ratioP2
24961;SDS011;12992;50.884;13.668;2022-12-18T00:01:31;9.23;;;4.72;;
24961;SDS011;12992;50.884;13.668;2022-12-18T00:03:59;11.25;;;5.03;;
24961;SDS011;12992;50.884;13.668;2022-12-18T00:06:27;12.05;;;4.50;;
24961;SDS011;12992;50.884;13.668;2022-12-18T00:08:54;12.05;;;5.18;;
24961;SDS011;12992;50.884;13.668;2022-12-18T00:11:21;12.85;;;5.10;;
24961;SDS011;12992;50.884;13.668;2022-12-18T00:13:48;12.85;;;5.40;;
24961;SDS011;12992;50.884;13.668;2022-12-18T00:16:15;12.32;;;5.75;;
24961;SDS011;12992;50.884;13.668;2022-12-18T00:18:45;14.05;;;6.32;;
24961;SDS011;12992;50.884;13.668;2022-12-18T00:21:12;13.77;;;5.53;;
24961;SDS011;12992;50.884;13.668;2022-12-18T00:23:38;11.48;;;5.03;;
24961;SDS011;12992;50.884;13.668;2022-12-18T00:26:05;10.90;;;4.93;;
24961;SDS011;12992;50.884;13.668;2022-12-18T00:28:32;10.73;;;5.53;;
24961;SDS011;12992;50.884;13.668;2022-12-18T00:31:02;15.25;;;5.70;;
24961;SDS011;12992;50.884;13.668;2022-12-18T00:33:28;9.82;;;5.10;;
24961;SDS011;12992;50.884;13.668;2022-12-18T00:35:53;14.77;;;5.75;;
24961;SDS011;12992;50.884;13.668;2022-12-18T00:38:19;12.90;;;4.93;;
24961;SDS011;12992;50.884;13.668;2022-12-18T00:40:44;10.98;;;4.97;;
24961;SDS011;12992;50.884;13.668;2022-12-18T00:43:11;9.98;;;4.63;;
24961;SDS011;12992;50.884;13.668;2022-12-18T00:45:36;10.00;;;4.10;;
24961;SDS011;12992;50.884;13.668;2022-12-18T00:48:02;8.90;;;4.45;;
24961;SDS011;12992;50.884;13.668;2022-12-18T00:50:27;9.95;;;4.45;;
24961;SDS011;12992;50.884;13.668;2022-12-18T00:52:52;8.75;;;4.18;;
24961;SDS011;12992;50.884;13.668;2022-12-18T00:55:18;13.10;;;4.90;;
24961;SDS011;12992;50.884;13.668;2022-12-18T00:57:45;10.98;;;5.07;;
24961;SDS011;12992;50.884;13.668;2022-12-18T01:00:12;12.05;;;4.75;;
24961;SDS011;12992;50.884;13.668;2022-12-18T01:02:40;11.50;;;4.00;;
24961;SDS011;12992;50.884;13.668;2022-12-18T01:05:06;16.25;;;5.95;;
24961;SDS011;12992;50.884;13.668;2022-12-18T01:07:33;12.48;;;4.57;;
24961;SDS011;12992;50.884;13.668;2022-12-18T01:09:58;11.70;;;4.70;;
24961;SDS011;12992;50.884;13.668;2022-12-18T01:12:25;9.32;;;3.78;;
24961;SDS011;12992;50.884;13.668;2022-12-18T01:14:50;8.10;;;3.90;;
24961;SDS011;12992;50.884;13.668;2022-12-18T01:17:15;8.95;;;4.22;;
24961;SDS011;12992;50.884;13.668;2022-12-18T01:19:41;9.15;;;3.58;;
24961;SDS011;12992;50.884;13.668;2022-12-18T01:22:07;8.27;;;4.03;;
24961;SDS011;12992;50.884;13.668;2022-12-18T01:24:32;7.53;;;4.00;;
24961;SDS011;12992;50.884;13.668;2022-12-18T01:26:57;7.05;;;3.53;;
24961;SDS011;12992;50.884;13.668;2022-12-18T01:29:23;9.90;;;4.10;;
24961;SDS011;12992;50.884;13.668;2022-12-18T01:31:48;8.50;;;4.00;;
24961;SDS011;12992;50.884;13.668;2022-12-18T01:34:13;9.38;;;3.80;;
24961;SDS011;12992;50.884;13.668;2022-12-18T01:36:40;8.27;;;3.35;;
24961;SDS011;12992;50.884;13.668;2022-12-18T01:39:06;6.35;;;3.75;;
24961;SDS011;12992;50.884;13.668;2022-12-18T01:41:35;9.60;;;3.80;;
24961;SDS011;12992;50.884;13.668;2022-12-18T01:47:20;8.52;;;3.45;;
24961;SDS011;12992;50.884;13.668;2022-12-18T01:52:42;7.38;;;3.38;;
24961;SDS011;12992;50.884;13.668;2022-12-18T01:55:09;6.82;;;3.60;;
24961;SDS011;12992;50.884;13.668;2022-12-18T01:57:35;10.40;;;4.18;;
24961;SDS011;12992;50.884;13.668;2022-12-18T02:00:05;7.22;;;3.50;;
24961;SDS011;12992;50.884;13.668;2022-12-18T02:02:40;7.68;;;3.53;;
24961;SDS011;12992;50.884;13.668;2022-12-18T02:05:07;5.88;;;3.17;;
24961;SDS011;12992;50.884;13.668;2022-12-18T02:10:42;7.63;;;3.53;;
24961;SDS011;12992;50.884;13.668;2022-12-18T02:13:29;5.85;;;3.60;;
24961;SDS011;12992;50.884;13.668;2022-12-18T02:18:51;6.57;;;2.88;;
24961;SDS011;12992;50.884;13.668;2022-12-18T02:26:50;6.60;;;2.80;;
24961;SDS011;12992;50.884;13.668;2022-12-18T02:29:30;7.85;;;3.72;;
24961;SDS011;12992;50.884;13.668;2022-12-18T02:32:02;8.57;;;3.63;;
24961;SDS011;12992;50.884;13.668;2022-12-18T02:34:31;7.78;;;3.53;;
24961;SDS011;12992;50.884;13.668;2022-12-18T02:37:01;7.22;;;3.45;;
24961;SDS011;12992;50.884;13.668;2022-12-18T02:39:29;8.30;;;3.45;;
24961;SDS011;12992;50.884;13.668;2022-12-18T02:42:01;8.63;;;3.67;;
24961;SDS011;12992;50.884;13.668;2022-12-18T02:44:34;6.57;;;3.20;;
24961;SDS011;12992;50.884;13.668;2022-12-18T02:47:08;7.65;;;3.92;;
24961;SDS011;12992;50.884;13.668;2022-12-18T02:52:17;4.70;;;2.80;;
24961;SDS011;12992;50.884;13.668;2022-12-18T02:57:43;9.82;;;3.40;;
24961;SDS011;12992;50.884;13.668;2022-12-18T03:00:31;6.57;;;3.03;;
24961;SDS011;12992;50.884;13.668;2022-12-18T03:03:10;5.35;;;2.88;;
24961;SDS011;12992;50.884;13.668;2022-12-18T03:05:43;5.82;;;2.90;;
24961;SDS011;12992;50.884;13.668;2022-12-18T03:08:18;5.93;;;2.92;;
24961;SDS011;12992;50.884;13.668;2022-12-18T03:11:02;7.55;;;2.90;;
24961;SDS011;12992;50.884;13.668;2022-12-18T03:13:35;8.65;;;3.10;;
24961;SDS011;12992;50.884;13.668;2022-12-18T03:16:05;6.80;;;3.20;;
24961;SDS011;12992;50.884;13.668;2022-12-18T03:18:34;6.50;;;3.33;;
24961;SDS011;12992;50.884;13.668;2022-12-18T03:21:07;7.88;;;3.22;;
24961;SDS011;12992;50.884;13.668;2022-12-18T03:23:43;7.15;;;3.40;;
24961;SDS011;12992;50.884;13.668;2022-12-18T03:26:14;5.22;;;2.42;;
24961;SDS011;12992;50.884;13.668;2022-12-18T03:28:44;6.57;;;2.90;;
24961;SDS011;12992;50.884;13.668;2022-12-18T03:31:16;4.78;;;2.90;;
24961;SDS011;12992;50.884;13.668;2022-12-18T03:33:52;5.63;;;2.45;;
24961;SDS011;12992;50.884;13.668;2022-12-18T03:36:23;10.98;;;2.97;;
24961;SDS011;12992;50.884;13.668;2022-12-18T03:38:50;6.55;;;3.03;;
24961;SDS011;12992;50.884;13.668;2022-12-18T03:44:21;6.35;;;2.95;;
24961;SDS011;12992;50.884;13.668;2022-12-18T03:47:04;7.07;;;2.97;;
24961;SDS011;12992;50.884;13.668;2022-12-18T03:49:45;8.65;;;3.33;;
24961;SDS011;12992;50.884;13.668;2022-12-18T03:52:20;6.20;;;2.90;;
24961;SDS011;12992;50.884;13.668;2022-12-18T03:54:52;7.85;;;2.80;;
24961;SDS011;12992;50.884;13.668;2022-12-18T03:57:21;6.20;;;2.90;;
24961;SDS011;12992;50.884;13.668;2022-12-18T03:59:53;6.07;;;2.87;;
24961;SDS011;12992;50.884;13.668;2022-12-18T04:02:26;5.43;;;2.83;;
24961;SDS011;12992;50.884;13.668;2022-12-18T04:04:53;7.57;;;3.10;;
24961;SDS011;12992;50.884;13.668;2022-12-18T04:07:23;8.02;;;3.25;;
24961;SDS011;12992;50.884;13.668;2022-12-18T04:09:50;7.75;;;3.00;;
24961;SDS011;12992;50.884;13.668;2022-12-18T04:12:23;5.93;;;3.17;;
24961;SDS011;12992;50.884;13.668;2022-12-18T04:14:50;6.20;;;2.75;;
24961;SDS011;12992;50.884;13.668;2022-12-18T04:17:16;7.05;;;3.08;;
24961;SDS011;12992;50.884;13.668;2022-12-18T04:19:41;7.28;;;3.28;;
24961;SDS011;12992;50.884;13.668;2022-12-18T04:22:08;5.07;;;2.95;;
24961;SDS011;12992;50.884;13.668;2022-12-18T04:24:40;5.93;;;2.92;;
24961;SDS011;12992;50.884;13.668;2022-12-18T04:27:13;6.57;;;2.92;;
24961;SDS011;12992;50.884;13.668;2022-12-18T04:29:43;6.53;;;3.42;;
24961;SDS011;12992;50.884;13.668;2022-12-18T04:32:09;9.88;;;3.28;;
24961;SDS011;12992;50.884;13.668;2022-12-18T04:34:35;5.38;;;3.17;;
24961;SDS011;12992;50.884;13.668;2022-12-18T04:37:01;7.38;;;3.10;;
24961;SDS011;12992;50.884;13.668;2022-12-18T04:39:26;7.40;;;3.40;;
24961;SDS011;12992;50.884;13.668;2022-12-18T04:41:55;6.95;;;3.10;;
24961;SDS011;12992;50.884;13.668;2022-12-18T04:44:20;6.00;;;2.95;;
24961;SDS011;12992;50.884;13.668;2022-12-18T04:46:46;6.45;;;2.80;;
24961;SDS011;12992;50.884;13.668;2022-12-18T04:49:11;8.63;;;3.30;;
24961;SDS011;12992;50.884;13.668;2022-12-18T04:51:37;6.07;;;3.03;;
24961;SDS011;12992;50.884;13.668;2022-12-18T04:54:03;8.43;;;3.45;;
24961;SDS011;12992;50.884;13.668;2022-12-18T04:56:30;6.20;;;3.03;;
24961;SDS011;12992;50.884;13.668;2022-12-18T04:58:56;7.47;;;2.83;;
24961;SDS011;12992;50.884;13.668;2022-12-18T05:01:21;7.75;;;3.53;;
24961;SDS011;12992;50.884;13.668;2022-12-18T05:03:47;6.68;;;3.65;;
24961;SDS011;12992;50.884;13.668;2022-12-18T05:06:12;7.72;;;3.13;;
24961;SDS011;12992;50.884;13.668;2022-12-18T05:08:38;6.85;;;3.03;;
24961;SDS011;12992;50.884;13.668;2022-12-18T05:11:10;6.40;;;3.05;;
24961;SDS011;12992;50.884;13.668;2022-12-18T05:13:40;6.40;;;2.83;;
24961;SDS011;12992;50.884;13.668;2022-12-18T05:16:06;5.32;;;3.05;;
24961;SDS011;12992;50.884;13.668;2022-12-18T05:18:31;8.18;;;3.38;;
24961;SDS011;12992;50.884;13.668;2022-12-18T05:20:57;8.75;;;3.42;;
24961;SDS011;12992;50.884;13.668;2022-12-18T05:23:23;6.70;;;2.90;;
24961;SDS011;12992;50.884;13.668;2022-12-18T05:25:56;7.25;;;3.90;;
24961;SDS011;12992;50.884;13.668;2022-12-18T05:28:24;7.70;;;3.55;;
24961;SDS011;12992;50.884;13.668;2022-12-18T05:30:51;8.25;;;3.45;;
24961;SDS011;12992;50.884;13.668;2022-12-18T05:33:18;9.75;;;4.03;;
24961;SDS011;12992;50.884;13.668;2022-12-18T05:35:44;7.70;;;4.43;;
24961;SDS011;12992;50.884;13.668;2022-12-18T05:38:10;7.75;;;3.90;;
24961;SDS011;12992;50.884;13.668;2022-12-18T05:40:35;15.48;;;6.68;;
24961;SDS011;12992;50.884;13.668;2022-12-18T05:43:01;10.88;;;4.13;;
24961;SDS011;12992;50.884;13.668;2022-12-18T05:45:30;10.75;;;4.60;;
24961;SDS011;12992;50.884;13.668;2022-12-18T05:47:55;11.30;;;4.03;;
24961;SDS011;12992;50.884;13.668;2022-12-18T05:50:20;9.88;;;4.47;;
24961;SDS011;12992;50.884;13.668;2022-12-18T05:52:46;10.25;;;4.55;;
24961;SDS011;12992;50.884;13.668;2022-12-18T05:55:11;8.18;;;3.97;;
24961;SDS011;12992;50.884;13.668;2022-12-18T05:57:37;9.45;;;4.30;;
24961;SDS011;12992;50.884;13.668;2022-12-18T06:00:02;7.93;;;3.67;;
24961;SDS011;12992;50.884;13.668;2022-12-18T06:02:37;10.15;;;4.93;;
24961;SDS011;12992;50.884;13.668;2022-12-18T06:05:02;12.07;;;6.32;;
24961;SDS011;12992;50.884;13.668;2022-12-18T06:07:28;12.57;;;4.90;;
24961;SDS011;12992;50.884;13.668;2022-12-18T06:09:53;8.93;;;3.85;;
24961;SDS011;12992;50.884;13.668;2022-12-18T06:12:18;11.70;;;5.82;;
24961;SDS011;12992;50.884;13.668;2022-12-18T06:14:44;10.20;;;5.05;;
24961;SDS011;12992;50.884;13.668;2022-12-18T06:17:09;10.68;;;5.28;;
24961;SDS011;12992;50.884;13.668;2022-12-18T06:19:34;10.18;;;4.60;;
24961;SDS011;12992;50.884;13.668;2022-12-18T06:22:00;9.13;;;4.40;;
24961;SDS011;12992;50.884;13.668;2022-12-18T06:24:25;10.35;;;5.50;;
24961;SDS011;12992;50.884;13.668;2022-12-18T06:26:50;15.80;;;7.38;;
24961;SDS011;12992;50.884;13.668;2022-12-18T06:29:16;14.43;;;7.22;;
24961;SDS011;12992;50.884;13.668;2022-12-18T06:31:41;11.88;;;5.57;;
24961;SDS011;12992;50.884;13.668;2022-12-18T06:34:06;15.32;;;7.43;;
24961;SDS011;12992;50.884;13.668;2022-12-18T06:36:32;13.63;;;5.95;;
24961;SDS011;12992;50.884;13.668;2022-12-18T06:38:57;16.02;;;6.93;;
24961;SDS011;12992;50.884;13.668;2022-12-18T06:41:23;19.98;;;8.85;;
24961;SDS011;12992;50.884;13.668;2022-12-18T06:43:49;19.98;;;7.78;;
24961;SDS011;12992;50.884;13.668;2022-12-18T06:46:14;17.33;;;8.20;;
24961;SDS011;12992;50.884;13.668;2022-12-18T06:48:40;15.88;;;7.35;;
24961;SDS011;12992;50.884;13.668;2022-12-18T06:51:05;17.02;;;6.85;;
24961;SDS011;12992;50.884;13.668;2022-12-18T06:53:32;14.77;;;7.78;;
24961;SDS011;12992;50.884;13.668;2022-12-18T06:56:01;21.00;;;7.93;;
24961;SDS011;12992;50.884;13.668;2022-12-18T06:58:26;15.30;;;7.03;;
24961;SDS011;12992;50.884;13.668;2022-12-18T07:00:52;19.00;;;8.00;;
24961;SDS011;12992;50.884;13.668;2022-12-18T07:03:17;16.95;;;8.20;;
24961;SDS011;12992;50.884;13.668;2022-12-18T07:05:43;15.70;;;7.68;;
24961;SDS011;12992;50.884;13.668;2022-12-18T07:08:08;16.40;;;7.10;;
24961;SDS011;12992;50.884;13.668;2022-12-18T07:10:39;14.75;;;7.55;;
24961;SDS011;12992;50.884;13.668;2022-12-18T07:13:06;17.63;;;7.88;;
24961;SDS011;12992;50.884;13.668;2022-12-18T07:15:31;16.42;;;7.32;;
24961;SDS011;12992;50.884;13.668;2022-12-18T07:17:56;17.10;;;6.97;;
24961;SDS011;12992;50.884;13.668;2022-12-18T07:20:22;17.27;;;7.45;;
24961;SDS011;12992;50.884;13.668;2022-12-18T07:22:47;17.40;;;7.38;;
24961;SDS011;12992;50.884;13.668;2022-12-18T07:25:12;14.40;;;7.13;;
24961;SDS011;12992;50.884;13.668;2022-12-18T07:27:37;13.90;;;6.75;;
24961;SDS011;12992;50.884;13.668;2022-12-18T07:30:03;15.65;;;7.07;;
24961;SDS011;12992;50.884;13.668;2022-12-18T07:32:29;16.55;;;7.15;;
24961;SDS011;12992;50.884;13.668;2022-12-18T07:34:55;15.18;;;6.30;;
24961;SDS011;12992;50.884;13.668;2022-12-18T07:37:20;16.70;;;7.43;;
24961;SDS011;12992;50.884;13.668;2022-12-18T07:39:46;17.65;;;6.90;;
24961;SDS011;12992;50.884;13.668;2022-12-18T07:42:11;20.45;;;9.13;;
24961;SDS011;12992;50.884;13.668;2022-12-18T07:44:55;19.30;;;9.13;;
24961;SDS011;12992;50.884;13.668;2022-12-18T07:47:20;15.88;;;8.18;;
24961;SDS011;12992;50.884;13.668;2022-12-18T07:49:45;15.50;;;7.78;;
24961;SDS011;12992;50.884;13.668;2022-12-18T07:52:11;14.23;;;7.00;;
24961;SDS011;12992;50.884;13.668;2022-12-18T07:54:37;14.23;;;7.05;;
24961;SDS011;12992;50.884;13.668;2022-12-18T07:57:03;17.30;;;7.97;;
24961;SDS011;12992;50.884;13.668;2022-12-18T07:59:28;17.75;;;8.50;;
24961;SDS011;12992;50.884;13.668;2022-12-18T08:01:54;20.23;;;9.82;;
24961;SDS011;12992;50.884;13.668;2022-12-18T08:04:19;14.65;;;6.95;;
24961;SDS011;12992;50.884;13.668;2022-12-18T08:06:44;15.50;;;8.25;;
24961;SDS011;12992;50.884;13.668;2022-12-18T08:09:10;14.80;;;7.43;;
24961;SDS011;12992;50.884;13.668;2022-12-18T08:11:36;16.25;;;8.18;;
24961;SDS011;12992;50.884;13.668;2022-12-18T08:14:01;13.90;;;6.93;;
24961;SDS011;12992;50.884;13.668;2022-12-18T08:16:27;14.88;;;8.10;;
24961;SDS011;12992;50.884;13.668;2022-12-18T08:18:52;62.70;;;23.83;;
24961;SDS011;12992;50.884;13.668;2022-12-18T08:21:19;30.80;;;17.20;;
24961;SDS011;12992;50.884;13.668;2022-12-18T08:23:48;19.50;;;9.65;;
24961;SDS011;12992;50.884;13.668;2022-12-18T08:26:14;16.55;;;8.00;;
24961;SDS011;12992;50.884;13.668;2022-12-18T08:28:40;16.95;;;8.18;;
24961;SDS011;12992;50.884;13.668;2022-12-18T08:31:07;29.25;;;13.70;;
24961;SDS011;12992;50.884;13.668;2022-12-18T08:33:32;31.27;;;14.35;;
24961;SDS011;12992;50.884;13.668;2022-12-18T08:35:59;24.58;;;12.15;;
24961;SDS011;12992;50.884;13.668;2022-12-18T08:38:25;20.17;;;10.70;;
24961;SDS011;12992;50.884;13.668;2022-12-18T08:41:04;20.23;;;9.57;;
24961;SDS011;12992;50.884;13.668;2022-12-18T08:43:31;16.38;;;8.10;;
24961;SDS011;12992;50.884;13.668;2022-12-18T08:46:15;18.60;;;8.63;;
24961;SDS011;12992;50.884;13.668;2022-12-18T08:48:40;17.10;;;8.57;;
24961;SDS011;12992;50.884;13.668;2022-12-18T08:51:05;22.92;;;11.05;;
24961;SDS011;12992;50.884;13.668;2022-12-18T08:53:31;18.80;;;10.68;;
24961;SDS011;12992;50.884;13.668;2022-12-18T08:55:57;18.48;;;9.35;;
24961;SDS011;12992;50.884;13.668;2022-12-18T08:58:22;16.83;;;9.00;;
24961;SDS011;12992;50.884;13.668;2022-12-18T09:00:48;22.02;;;10.63;;
24961;SDS011;12992;50.884;13.668;2022-12-18T09:03:14;192.60;;;77.47;;
24961;SDS011;12992;50.884;13.668;2022-12-18T09:05:43;86.40;;;44.60;;
24961;SDS011;12992;50.884;13.668;2022-12-18T09:08:11;35.38;;;20.33;;
24961;SDS011;12992;50.884;13.668;2022-12-18T09:10:45;37.80;;;22.10;;
24961;SDS011;12992;50.884;13.668;2022-12-18T09:13:13;30.63;;;17.52;;
24961;SDS011;12992;50.884;13.668;2022-12-18T09:15:47;24.85;;;13.13;;
24961;SDS011;12992;50.884;13.668;2022-12-18T09:18:14;20.17;;;9.77;;
24961;SDS011;12992;50.884;13.668;2022-12-18T09:20:41;19.67;;;11.75;;
24961;SDS011;12992;50.884;13.668;2022-12-18T09:23:06;16.85;;;9.68;;
24961;SDS011;12992;50.884;13.668;2022-12-18T09:25:32;19.83;;;9.52;;
24961;SDS011;12992;50.884;13.668;2022-12-18T09:28:01;21.88;;;11.50;;
24961;SDS011;12992;50.884;13.668;2022-12-18T09:30:27;34.60;;;18.02;;
24961;SDS011;12992;50.884;13.668;2022-12-18T09:32:52;33.60;;;17.33;;
24961;SDS011;12992;50.884;13.668;2022-12-18T09:35:18;55.55;;;33.53;;
24961;SDS011;12992;50.884;13.668;2022-12-18T09:37:43;109.47;;;57.83;;
24961;SDS011;12992;50.884;13.668;2022-12-18T09:40:18;134.70;;;86.20;;
24961;SDS011;12992;50.884;13.668;2022-12-18T09:42:47;43.22;;;29.15;;
24961;SDS011;12992;50.884;13.668;2022-12-18T09:45:17;58.03;;;38.33;;
24961;SDS011;12992;50.884;13.668;2022-12-18T09:47:43;46.42;;;27.02;;
24961;SDS011;12992;50.884;13.668;2022-12-18T09:53:04;28.65;;;18.13;;
24961;SDS011;12992;50.884;13.668;2022-12-18T09:55:38;29.98;;;21.15;;
24961;SDS011;12992;50.884;13.668;2022-12-18T09:58:17;27.33;;;15.70;;
24961;SDS011;12992;50.884;13.668;2022-12-18T10:00:48;25.48;;;15.27;;
24961;SDS011;12992;50.884;13.668;2022-12-18T10:03:16;30.35;;;19.08;;
24961;SDS011;12992;50.884;13.668;2022-12-18T10:11:32;26.05;;;16.05;;
24961;SDS011;12992;50.884;13.668;2022-12-18T10:16:54;29.88;;;15.02;;
24961;SDS011;12992;50.884;13.668;2022-12-18T10:22:24;17.77;;;10.95;;
24961;SDS011;12992;50.884;13.668;2022-12-18T10:25:05;17.13;;;9.35;;
24961;SDS011;12992;50.884;13.668;2022-12-18T10:27:41;14.48;;;8.80;;
24961;SDS011;12992;50.884;13.668;2022-12-18T10:30:17;17.15;;;10.50;;
24961;SDS011;12992;50.884;13.668;2022-12-18T10:32:44;15.05;;;9.05;;
24961;SDS011;12992;50.884;13.668;2022-12-18T10:35:28;20.55;;;11.63;;
24961;SDS011;12992;50.884;13.668;2022-12-18T10:38:00;18.27;;;10.32;;
24961;SDS011;12992;50.884;13.668;2022-12-18T10:40:57;13.18;;;8.48;;
24961;SDS011;12992;50.884;13.668;2022-12-18T10:51:05;11.57;;;7.70;;
24961;SDS011;12992;50.884;13.668;2022-12-18T10:53:33;13.68;;;8.88;;
24961;SDS011;12992;50.884;13.668;2022-12-18T10:56:01;13.90;;;8.93;;
24961;SDS011;12992;50.884;13.668;2022-12-18T10:58:29;15.75;;;8.45;;
24961;SDS011;12992;50.884;13.668;2022-12-18T11:03:44;19.27;;;9.27;;
24961;SDS011;12992;50.884;13.668;2022-12-18T11:08:42;18.88;;;10.65;;
24961;SDS011;12992;50.884;13.668;2022-12-18T11:11:19;41.00;;;20.10;;
24961;SDS011;12992;50.884;13.668;2022-12-18T11:14:05;19.77;;;10.88;;
24961;SDS011;12992;50.884;13.668;2022-12-18T11:16:42;18.45;;;11.68;;
24961;SDS011;12992;50.884;13.668;2022-12-18T11:19:12;22.13;;;11.52;;
24961;SDS011;12992;50.884;13.668;2022-12-18T11:21:47;27.08;;;13.90;;
24961;SDS011;12992;50.884;13.668;2022-12-18T11:24:49;30.27;;;15.27;;
24961;SDS011;12992;50.884;13.668;2022-12-18T11:27:05;25.05;;;14.20;;
24961;SDS011;12992;50.884;13.668;2022-12-18T11:29:40;25.95;;;13.95;;
24961;SDS011;12992;50.884;13.668;2022-12-18T11:32:19;21.48;;;12.13;;
24961;SDS011;12992;50.884;13.668;2022-12-18T11:34:52;22.85;;;12.40;;
24961;SDS011;12992;50.884;13.668;2022-12-18T11:37:23;23.05;;;12.93;;
24961;SDS011;12992;50.884;13.668;2022-12-18T11:42:39;22.33;;;11.20;;
24961;SDS011;12992;50.884;13.668;2022-12-18T11:50:02;22.27;;;11.38;;
24961;SDS011;12992;50.884;13.668;2022-12-18T11:57:34;21.95;;;10.88;;
24961;SDS011;12992;50.884;13.668;2022-12-18T12:00:19;21.48;;;11.18;;
24961;SDS011;12992;50.884;13.668;2022-12-18T12:14:00;27.23;;;13.20;;
24961;SDS011;12992;50.884;13.668;2022-12-18T12:25:02;23.88;;;10.30;;
24961;SDS011;12992;50.884;13.668;2022-12-18T12:31:00;17.40;;;9.45;;
24961;SDS011;12992;50.884;13.668;2022-12-18T12:33:40;18.70;;;8.77;;
24961;SDS011;12992;50.884;13.668;2022-12-18T12:36:22;21.88;;;9.48;;
24961;SDS011;12992;50.884;13.668;2022-12-18T12:39:01;17.25;;;8.63;;
24961;SDS011;12992;50.884;13.668;2022-12-18T12:41:33;17.13;;;8.73;;
24961;SDS011;12992;50.884;13.668;2022-12-18T12:44:22;20.42;;;10.82;;
24961;SDS011;12992;50.884;13.668;2022-12-18T12:46:52;17.02;;;8.23;;
24961;SDS011;12992;50.884;13.668;2022-12-18T12:49:22;25.52;;;14.48;;
24961;SDS011;12992;50.884;13.668;2022-12-18T12:52:00;16.40;;;7.65;;
24961;SDS011;12992;50.884;13.668;2022-12-18T12:54:31;25.50;;;13.07;;
24961;SDS011;12992;50.884;13.668;2022-12-18T12:57:04;23.92;;;11.93;;
24961;SDS011;12992;50.884;13.668;2022-12-18T12:59:42;15.10;;;8.02;;
24961;SDS011;12992;50.884;13.668;2022-12-18T13:04:58;17.60;;;8.85;;
24961;SDS011;12992;50.884;13.668;2022-12-18T13:12:56;19.70;;;9.55;;
24961;SDS011;12992;50.884;13.668;2022-12-18T13:20:45;19.20;;;9.32;;
24961;SDS011;12992;50.884;13.668;2022-12-18T13:23:25;20.02;;;9.13;;
24961;SDS011;12992;50.884;13.668;2022-12-18T13:31:07;17.35;;;9.13;;
24961;SDS011;12992;50.884;13.668;2022-12-18T13:33:39;20.45;;;9.40;;
24961;SDS011;12992;50.884;13.668;2022-12-18T13:38:47;19.75;;;9.10;;
24961;SDS011;12992;50.884;13.668;2022-12-18T13:41:32;18.98;;;9.70;;
24961;SDS011;12992;50.884;13.668;2022-12-18T13:44:10;17.73;;;8.65;;
24961;SDS011;12992;50.884;13.668;2022-12-18T13:46:44;19.33;;;9.73;;
24961;SDS011;12992;50.884;13.668;2022-12-18T13:51:40;24.02;;;12.32;;
24961;SDS011;12992;50.884;13.668;2022-12-18T13:56:43;21.77;;;11.23;;
24961;SDS011;12992;50.884;13.668;2022-12-18T14:01:35;19.10;;;10.50;;
24961;SDS011;12992;50.884;13.668;2022-12-18T14:04:18;21.35;;;10.60;;
24961;SDS011;12992;50.884;13.668;2022-12-18T14:06:49;20.35;;;9.35;;
24961;SDS011;12992;50.884;13.668;2022-12-18T14:09:24;17.15;;;9.23;;
24961;SDS011;12992;50.884;13.668;2022-12-18T14:11:51;17.25;;;8.55;;
24961;SDS011;12992;50.884;13.668;2022-12-18T14:14:40;18.00;;;8.38;;
24961;SDS011;12992;50.884;13.668;2022-12-18T14:17:11;17.40;;;8.48;;
24961;SDS011;12992;50.884;13.668;2022-12-18T14:19:37;15.00;;;7.80;;
24961;SDS011;12992;50.884;13.668;2022-12-18T14:22:11;19.95;;;8.75;;
24961;SDS011;12992;50.884;13.668;2022-12-18T14:24:40;21.08;;;7.63;;
24961;SDS011;12992;50.884;13.668;2022-12-18T14:27:22;17.75;;;8.55;;
24961;SDS011;12992;50.884;13.668;2022-12-18T14:29:49;21.00;;;9.38;;
24961;SDS011;12992;50.884;13.668;2022-12-18T14:32:18;18.88;;;8.65;;
24961;SDS011;12992;50.884;13.668;2022-12-18T14:34:49;22.65;;;10.60;;
24961;SDS011;12992;50.884;13.668;2022-12-18T14:37:17;18.60;;;8.52;;
24961;SDS011;12992;50.884;13.668;2022-12-18T14:40:02;19.60;;;9.23;;
24961;SDS011;12992;50.884;13.668;2022-12-18T14:42:28;19.38;;;8.82;;
24961;SDS011;12992;50.884;13.668;2022-12-18T14:47:57;20.95;;;8.60;;
24961;SDS011;12992;50.884;13.668;2022-12-18T14:50:23;17.92;;;8.30;;
24961;SDS011;12992;50.884;13.668;2022-12-18T14:52:49;18.00;;;7.30;;
24961;SDS011;12992;50.884;13.668;2022-12-18T14:55:19;18.27;;;8.43;;
24961;SDS011;12992;50.884;13.668;2022-12-18T14:57:45;21.55;;;8.40;;
24961;SDS011;12992;50.884;13.668;2022-12-18T15:00:17;18.88;;;8.57;;
24961;SDS011;12992;50.884;13.668;2022-12-18T15:02:49;17.65;;;7.95;;
24961;SDS011;12992;50.884;13.668;2022-12-18T15:05:19;18.92;;;8.05;;
24961;SDS011;12992;50.884;13.668;2022-12-18T15:07:50;21.27;;;8.50;;
24961;SDS011;12992;50.884;13.668;2022-12-18T15:12:44;23.55;;;9.05;;
24961;SDS011;12992;50.884;13.668;2022-12-18T15:23:25;26.83;;;10.25;;
24961;SDS011;12992;50.884;13.668;2022-12-18T15:26:00;24.42;;;10.93;;
24961;SDS011;12992;50.884;13.668;2022-12-18T15:33:39;27.67;;;11.93;;
24961;SDS011;12992;50.884;13.668;2022-12-18T15:38:41;31.45;;;13.90;;
24961;SDS011;12992;50.884;13.668;2022-12-18T15:41:12;32.70;;;14.43;;
24961;SDS011;12992;50.884;13.668;2022-12-18T15:43:39;31.98;;;13.10;;
24961;SDS011;12992;50.884;13.668;2022-12-18T15:46:15;31.00;;;13.88;;
24961;SDS011;12992;50.884;13.668;2022-12-18T15:48:42;32.25;;;11.30;;
24961;SDS011;12992;50.884;13.668;2022-12-18T15:51:19;34.47;;;13.80;;
24961;SDS011;12992;50.884;13.668;2022-12-18T15:53:47;27.75;;;11.63;;
24961;SDS011;12992;50.884;13.668;2022-12-18T15:56:15;35.25;;;12.63;;
24961;SDS011;12992;50.884;13.668;2022-12-18T15:59:00;30.77;;;11.68;;
24961;SDS011;12992;50.884;13.668;2022-12-18T16:01:26;45.92;;;18.33;;
24961;SDS011;12992;50.884;13.668;2022-12-18T16:03:53;34.00;;;14.48;;
24961;SDS011;12992;50.884;13.668;2022-12-18T16:06:19;32.65;;;12.93;;
24961;SDS011;12992;50.884;13.668;2022-12-18T16:08:45;34.72;;;13.90;;
24961;SDS011;12992;50.884;13.668;2022-12-18T16:11:16;36.90;;;14.00;;
24961;SDS011;12992;50.884;13.668;2022-12-18T16:14:03;29.40;;;11.88;;
24961;SDS011;12992;50.884;13.668;2022-12-18T16:16:37;25.23;;;10.82;;
24961;SDS011;12992;50.884;13.668;2022-12-18T16:19:03;30.30;;;11.82;;
24961;SDS011;12992;50.884;13.668;2022-12-18T16:21:28;32.63;;;13.27;;
24961;SDS011;12992;50.884;13.668;2022-12-18T16:23:53;34.10;;;14.48;;
24961;SDS011;12992;50.884;13.668;2022-12-18T16:26:19;31.25;;;12.80;;
24961;SDS011;12992;50.884;13.668;2022-12-18T16:28:44;35.63;;;13.27;;
24961;SDS011;12992;50.884;13.668;2022-12-18T16:31:09;39.85;;;15.93;;
24961;SDS011;12992;50.884;13.668;2022-12-18T16:33:35;35.00;;;14.15;;
24961;SDS011;12992;50.884;13.668;2022-12-18T16:36:00;31.08;;;14.85;;
24961;SDS011;12992;50.884;13.668;2022-12-18T16:38:25;34.38;;;15.90;;
24961;SDS011;12992;50.884;13.668;2022-12-18T16:40:51;40.92;;;18.30;;
24961;SDS011;12992;50.884;13.668;2022-12-18T16:43:35;28.08;;;11.10;;
24961;SDS011;12992;50.884;13.668;2022-12-18T16:46:00;26.17;;;12.38;;
24961;SDS011;12992;50.884;13.668;2022-12-18T16:48:26;27.70;;;12.75;;
24961;SDS011;12992;50.884;13.668;2022-12-18T16:50:53;26.27;;;11.88;;
24961;SDS011;12992;50.884;13.668;2022-12-18T16:53:25;26.00;;;13.18;;